createdAt,value
2018-03-01T00:01:16.875Z,97753.97
2018-03-01T00:03:44.390Z,97742.48
2018-03-01T00:06:11.917Z,97735.67
2018-03-01T00:08:39.433Z,97729.64
2018-03-01T00:11:06.944Z,97718.26
2018-03-01T00:13:34.479Z,97726.78
2018-03-01T00:16:02.029Z,97725.95
2018-03-01T00:18:29.651Z,97732.41
2018-03-01T00:20:57.620Z,97733.64
2018-03-01T00:23:25.232Z,97731.45
2018-03-01T00:25:52.738Z,97728.07
2018-03-01T00:28:20.232Z,97725.50
2018-03-01T00:30:47.834Z,97721.64
2018-03-01T00:33:15.467Z,97731.41
2018-03-01T00:35:42.994Z,97725.81
2018-03-01T00:38:10.584Z,97717.69
2018-03-01T00:40:38.111Z,97725.38
2018-03-01T00:43:06.092Z,97729.13
2018-03-01T00:45:33.668Z,97729.42
2018-03-01T00:48:01.199Z,97711.19
2018-03-01T00:50:28.725Z,97705.08
2018-03-01T00:52:56.255Z,97715.28
2018-03-01T00:55:23.970Z,97711.33
2018-03-01T00:57:51.463Z,97706.56
2018-03-01T01:00:18.968Z,97702.69
2018-03-01T01:02:46.474Z,97699.52
2018-03-01T01:05:13.986Z,97698.95
2018-03-01T01:07:41.513Z,97688.34
2018-03-01T01:10:09.031Z,97690.02
2018-03-01T01:12:36.570Z,97691.23
2018-03-01T01:15:04.077Z,97685.90
2018-03-01T01:17:31.615Z,97686.84
2018-03-01T01:19:59.264Z,97685.06
2018-03-01T01:22:26.804Z,97679.92
2018-03-01T01:24:54.304Z,97680.63
2018-03-01T01:27:21.818Z,97673.79
2018-03-01T01:29:49.368Z,97670.48
2018-03-01T01:32:16.938Z,97675.49
2018-03-01T01:34:44.477Z,97671.52
2018-03-01T01:37:11.987Z,97666.78
2018-03-01T01:39:39.512Z,97667.46
2018-03-01T01:42:07.001Z,97665.92
2018-03-01T01:44:34.532Z,97658.00
2018-03-01T01:47:02.030Z,97657.39
2018-03-01T01:49:29.614Z,97650.26
2018-03-01T01:51:57.173Z,97653.97
2018-03-01T01:54:25.365Z,97640.86
2018-03-01T01:56:52.867Z,97634.82
2018-03-01T01:59:20.351Z,97633.84
2018-03-01T02:01:47.874Z,97625.88
2018-03-01T02:04:15.404Z,97621.25
2018-03-01T02:06:43.016Z,97623.09
2018-03-01T02:09:10.656Z,97620.51
2018-03-01T02:11:39.673Z,97619.39
2018-03-01T02:14:07.568Z,97617.27
2018-03-01T02:16:35.132Z,97612.39
2018-03-01T02:19:02.665Z,97602.49
2018-03-01T02:21:30.197Z,97586.00
2018-03-01T02:23:57.931Z,97580.61
2018-03-01T02:26:25.454Z,97573.00
2018-03-01T02:28:53.903Z,97570.50
2018-03-01T02:31:21.508Z,97563.20
2018-03-01T02:33:49.140Z,97563.25
2018-03-01T02:39:16.719Z,97542.99
2018-03-01T02:41:44.274Z,97536.18
2018-03-01T02:44:11.797Z,97529.29
2018-03-01T02:46:39.344Z,97529.30
2018-03-01T02:49:06.878Z,97527.14
2018-03-01T02:51:34.462Z,97524.11
2018-03-01T02:54:02.007Z,97517.69
2018-03-01T02:56:29.540Z,97515.55
2018-03-01T02:58:57.144Z,97518.55
2018-03-01T03:01:24.645Z,97516.38
2018-03-01T03:03:53.046Z,97505.35
2018-03-01T03:06:20.543Z,97505.31
2018-03-01T03:08:48.079Z,97499.72
2018-03-01T03:11:16.105Z,97500.16
2018-03-01T03:13:43.630Z,97500.23
2018-03-01T03:16:11.145Z,97492.68
2018-03-01T03:18:38.667Z,97486.82
2018-03-01T03:21:06.247Z,97490.48
2018-03-01T03:23:33.801Z,97485.08
2018-03-01T03:26:01.315Z,97485.58
2018-03-01T03:28:28.837Z,97480.91
2018-03-01T03:30:56.351Z,97478.34
2018-03-01T03:33:23.898Z,97470.33
2018-03-01T03:35:51.379Z,97471.63
2018-03-01T03:38:18.945Z,97466.66
2018-03-01T03:40:46.476Z,97474.34
2018-03-01T03:43:13.993Z,97466.34
2018-03-01T03:45:41.541Z,97470.55
2018-03-01T03:48:09.118Z,97458.18
2018-03-01T03:50:36.624Z,97464.93
2018-03-01T03:53:04.164Z,97458.82
2018-03-01T03:55:31.737Z,97460.97
2018-03-01T03:57:59.296Z,97460.05
2018-03-01T04:00:27.293Z,97448.97
2018-03-01T04:02:54.811Z,97455.88
2018-03-01T04:05:22.332Z,97453.28
2018-03-01T04:07:49.926Z,97449.89
2018-03-01T04:10:17.466Z,97459.67
2018-03-01T04:12:45.017Z,97455.37
2018-03-01T04:15:12.563Z,97451.55
2018-03-01T04:17:41.014Z,97450.88
2018-03-01T04:20:09.029Z,97453.82
2018-03-01T04:22:36.560Z,97436.83
2018-03-01T04:25:04.112Z,97434.78
2018-03-01T04:27:32.042Z,97424.59
2018-03-01T04:30:00.004Z,97427.13
2018-03-01T04:32:28.131Z,97429.22
2018-03-01T04:34:55.639Z,97432.69
2018-03-01T04:37:23.195Z,97433.06
2018-03-01T04:39:50.713Z,97433.53
2018-03-01T04:42:18.214Z,97436.53
2018-03-01T04:44:45.739Z,97437.48
2018-03-01T04:47:13.250Z,97432.89
2018-03-01T04:49:40.849Z,97429.09
2018-03-01T04:52:08.364Z,97432.13
2018-03-01T04:54:36.346Z,97428.01
2018-03-01T04:57:03.848Z,97433.47
2018-03-01T04:59:31.418Z,97426.78
2018-03-01T05:01:59.092Z,97428.65
2018-03-01T05:04:27.034Z,97428.20
2018-03-01T05:06:54.579Z,97432.72
2018-03-01T05:09:22.094Z,97417.90
2018-03-01T05:11:49.599Z,97427.59
2018-03-01T05:14:17.678Z,97418.30
2018-03-01T05:16:45.180Z,97422.23
2018-03-01T05:19:12.746Z,97417.48
2018-03-01T05:21:40.250Z,97416.19
2018-03-01T05:24:07.762Z,97409.95
2018-03-01T05:26:35.262Z,97414.05
2018-03-01T05:29:02.756Z,97417.94
2018-03-01T05:31:30.267Z,97416.31
2018-03-01T05:33:57.846Z,97415.91
2018-03-01T05:36:25.352Z,97411.73
2018-03-01T05:38:52.998Z,97414.66
2018-03-01T05:41:20.528Z,97407.84
2018-03-01T05:43:48.101Z,97406.50
2018-03-01T05:46:15.603Z,97398.55
2018-03-01T05:48:43.188Z,97403.17
2018-03-01T05:51:10.725Z,97398.86
2018-03-01T05:53:38.299Z,97396.01
2018-03-01T05:56:05.849Z,97390.78
2018-03-01T05:58:33.357Z,97390.77
2018-03-01T06:01:00.874Z,97392.43
2018-03-01T06:03:28.368Z,97379.73
2018-03-01T06:05:55.908Z,97377.21
2018-03-01T06:08:24.386Z,97373.27
2018-03-01T06:10:51.940Z,97382.23
2018-03-01T06:13:19.478Z,97376.31
2018-03-01T06:15:46.973Z,97375.47
2018-03-01T06:18:14.486Z,97372.16
2018-03-01T06:20:41.982Z,97369.08
2018-03-01T06:23:09.491Z,97365.67
2018-03-01T06:25:37.028Z,97361.86
2018-03-01T06:28:04.587Z,97360.25
2018-03-01T06:30:32.132Z,97363.19
2018-03-01T06:32:59.633Z,97360.33
2018-03-01T06:35:27.183Z,97354.86
2018-03-01T06:37:54.776Z,97355.34
2018-03-01T06:40:22.308Z,97360.83
2018-03-01T06:42:49.812Z,97353.70
2018-03-01T06:45:17.371Z,97358.41
2018-03-01T06:47:44.876Z,97352.41
2018-03-01T06:50:12.383Z,97344.09
2018-03-01T06:52:39.900Z,97345.34
2018-03-01T06:55:07.421Z,97352.65
2018-03-01T06:57:34.948Z,97353.20
2018-03-01T07:00:02.445Z,97359.53
2018-03-01T07:02:29.996Z,97351.06
2018-03-01T07:04:57.528Z,97352.41
2018-03-01T07:07:25.048Z,97352.04
2018-03-01T07:09:52.597Z,97355.50
2018-03-01T07:12:20.094Z,97349.05
2018-03-01T07:14:47.602Z,97356.26
2018-03-01T07:17:15.132Z,97348.30
2018-03-01T07:19:42.653Z,97344.55
2018-03-01T07:22:10.197Z,97337.27
2018-03-01T07:24:37.687Z,97337.31
2018-03-01T07:27:05.964Z,97333.11
2018-03-01T07:29:33.623Z,97330.98
2018-03-01T07:32:01.413Z,97329.31
2018-03-01T07:34:28.976Z,97336.55
2018-03-01T07:36:56.510Z,97325.92
2018-03-01T07:39:24.023Z,97329.34
2018-03-01T07:41:51.596Z,97322.94
2018-03-01T07:44:19.101Z,97327.19
2018-03-01T07:46:46.632Z,97330.61
2018-03-01T07:49:14.150Z,97321.70
2018-03-01T07:51:41.659Z,97321.28
2018-03-01T07:54:09.243Z,97317.02
2018-03-01T07:56:36.813Z,97310.62
2018-03-01T07:59:04.331Z,97316.17
2018-03-01T08:01:31.844Z,97304.22
2018-03-01T08:03:59.419Z,97305.06
2018-03-01T08:06:26.927Z,97303.31
2018-03-01T08:08:54.436Z,97300.73
2018-03-01T08:11:22.027Z,97299.88
2018-03-01T08:13:49.536Z,97294.66
2018-03-01T08:16:17.093Z,97292.03
2018-03-01T08:18:44.608Z,97296.33
2018-03-01T08:21:12.127Z,97296.73
2018-03-01T08:23:39.658Z,97283.88
2018-03-01T08:26:07.180Z,97291.30
2018-03-01T08:28:34.664Z,97291.72
2018-03-01T08:31:02.174Z,97298.77
2018-03-01T08:33:29.710Z,97299.48
2018-03-01T08:35:57.274Z,97291.88
2018-03-01T08:38:24.790Z,97287.47
2018-03-01T08:40:52.281Z,97282.50
2018-03-01T08:43:19.795Z,97288.51
2018-03-01T08:45:47.292Z,97282.31
2018-03-01T08:48:14.821Z,97265.17
2018-03-01T08:50:42.321Z,97262.22
2018-03-01T08:53:09.851Z,97275.79
2018-03-01T08:55:37.366Z,97273.67
2018-03-01T08:58:04.874Z,97271.75
2018-03-01T09:00:32.391Z,97267.95
2018-03-01T09:02:59.904Z,97272.46
2018-03-01T09:05:27.451Z,97267.50
2018-03-01T09:07:54.977Z,97263.23
2018-03-01T09:10:22.476Z,97274.09
2018-03-01T09:12:49.995Z,97266.48
2018-03-01T09:15:17.508Z,97265.64
2018-03-01T09:17:45.083Z,97263.63
2018-03-01T09:20:12.575Z,97260.19
2018-03-01T09:22:40.060Z,97260.72
2018-03-01T09:25:07.565Z,97257.76
2018-03-01T09:27:35.086Z,97250.37
2018-03-01T09:30:02.684Z,97252.70
2018-03-01T09:32:30.190Z,97256.15
2018-03-01T09:34:57.711Z,97257.81
2018-03-01T09:37:25.232Z,97260.92
2018-03-01T09:39:52.760Z,97258.05
2018-03-01T09:42:20.281Z,97254.66
2018-03-01T09:44:47.802Z,97250.23
2018-03-01T09:47:15.313Z,97244.31
2018-03-01T09:49:42.857Z,97230.16
2018-03-01T09:52:10.372Z,97237.79
2018-03-01T09:54:37.906Z,97235.27
2018-03-01T09:57:05.428Z,97233.13
2018-03-01T09:59:32.910Z,97231.12
2018-03-01T10:02:00.403Z,97228.36
2018-03-01T10:04:28.819Z,97226.05
2018-03-01T10:06:56.369Z,97225.73
2018-03-01T10:09:23.866Z,97219.73
2018-03-01T10:11:51.392Z,97213.70
2018-03-01T10:14:18.910Z,97212.34
2018-03-01T10:16:46.463Z,97214.59
2018-03-01T10:19:14.007Z,97207.60
2018-03-01T10:21:41.518Z,97208.47
2018-03-01T10:24:09.035Z,97209.70
2018-03-01T10:26:36.541Z,97215.25
2018-03-01T10:29:04.111Z,97207.94
2018-03-01T10:31:31.636Z,97210.09
2018-03-01T10:33:59.212Z,97204.11
2018-03-01T10:36:26.743Z,97202.86
2018-03-01T10:38:54.245Z,97203.61
2018-03-01T10:41:21.774Z,97205.48
2018-03-01T10:43:49.274Z,97205.30
2018-03-01T10:46:16.838Z,97201.60
2018-03-01T10:48:44.419Z,97201.91
2018-03-01T10:51:11.929Z,97191.88
2018-03-01T10:53:39.527Z,97196.55
2018-03-01T10:56:07.050Z,97195.98
2018-03-01T10:58:35.382Z,97193.05
2018-03-01T11:01:02.906Z,97185.64
2018-03-01T11:03:30.405Z,97180.83
2018-03-01T11:05:57.975Z,97180.05
2018-03-01T11:08:25.551Z,97173.84
2018-03-01T11:10:53.085Z,97160.10
2018-03-01T11:13:20.632Z,97155.06
2018-03-01T11:15:48.151Z,97161.30
2018-03-01T11:18:15.669Z,97147.09
2018-03-01T11:20:43.142Z,97149.20
2018-03-01T11:23:10.654Z,97137.73
2018-03-01T11:25:38.212Z,97139.00
2018-03-01T11:28:05.729Z,97133.53
2018-03-01T11:30:33.990Z,97126.37
2018-03-01T11:33:01.529Z,97131.86
2018-03-01T11:35:29.030Z,97122.88
2018-03-01T11:37:56.693Z,97123.66
2018-03-01T11:40:24.269Z,97115.27
2018-03-01T11:42:51.778Z,97111.78
2018-03-01T11:45:19.316Z,97103.75
2018-03-01T11:47:46.874Z,97094.31
2018-03-01T11:50:14.360Z,97089.05
2018-03-01T11:52:41.961Z,97086.25
2018-03-01T11:55:09.513Z,97081.34
2018-03-01T11:57:37.055Z,97081.25
2018-03-01T12:00:04.568Z,97069.04
2018-03-01T12:02:32.110Z,97060.17
2018-03-01T12:04:59.657Z,97060.33
2018-03-01T12:07:27.192Z,97053.73
2018-03-01T12:09:54.776Z,97049.86
2018-03-01T12:12:22.294Z,97042.56
2018-03-01T12:14:49.810Z,97044.63
2018-03-01T12:17:17.304Z,97036.78
2018-03-01T12:19:44.895Z,97033.67
2018-03-01T12:22:13.336Z,97031.55
2018-03-01T12:24:40.878Z,97037.15
2018-03-01T12:27:08.402Z,97029.27
2018-03-01T12:29:35.917Z,97032.31
2018-03-01T12:32:03.414Z,97023.44
2018-03-01T12:34:30.917Z,97018.19
2018-03-01T12:36:58.441Z,97011.09
2018-03-01T12:39:25.940Z,97000.98
2018-03-01T12:41:53.449Z,97000.98
2018-03-01T12:44:20.981Z,96987.37
2018-03-01T12:46:48.873Z,96989.00
2018-03-01T12:49:16.404Z,96972.28
2018-03-01T12:51:43.905Z,96976.92
2018-03-01T12:54:11.410Z,96978.75
2018-03-01T12:56:38.909Z,96985.84
2018-03-01T12:59:06.406Z,96975.13
2018-03-01T13:01:33.925Z,96980.14
2018-03-01T13:04:04.050Z,96985.22
2018-03-01T13:06:31.543Z,96994.83
2018-03-01T13:08:59.063Z,96982.76
2018-03-01T13:11:26.642Z,96978.45
2018-03-01T13:13:54.151Z,96977.84
2018-03-01T13:16:22.067Z,96983.92
2018-03-01T13:18:49.635Z,96986.17
2018-03-01T13:21:17.219Z,96984.80
2018-03-01T13:23:44.825Z,96979.92
2018-03-01T13:26:13.003Z,96986.58
2018-03-01T13:28:40.578Z,96975.71
2018-03-01T13:31:16.250Z,96975.84
2018-03-01T13:36:46.408Z,96966.16
2018-03-01T13:39:13.998Z,96967.26
2018-03-01T13:41:42.714Z,96952.59
2018-03-01T13:44:10.232Z,96958.98
2018-03-01T13:46:41.087Z,96960.33
2018-03-01T13:49:08.645Z,96957.32
2018-03-01T13:51:36.167Z,96954.45
2018-03-01T13:54:03.792Z,96945.77
2018-03-01T13:56:31.776Z,96944.31
2018-03-01T13:58:59.428Z,96946.72
2018-03-01T14:01:28.982Z,96941.82
2018-03-01T14:03:56.535Z,96942.34
2018-03-01T14:09:26.126Z,96938.20
2018-03-01T14:11:53.641Z,96943.06
2018-03-01T14:14:21.555Z,96944.08
2018-03-01T14:16:49.881Z,96937.08
2018-03-01T14:19:17.412Z,96941.77
2018-03-01T14:22:05.582Z,96936.55
2018-03-01T14:24:33.075Z,96939.34
2018-03-01T14:27:06.309Z,96936.84
2018-03-01T14:32:34.628Z,96935.41
2018-03-01T14:35:02.212Z,96931.98
2018-03-01T14:37:29.768Z,96927.09
2018-03-01T14:39:57.287Z,96922.02
2018-03-01T14:42:24.826Z,96922.20
2018-03-01T14:44:52.374Z,96922.58
2018-03-01T14:47:19.889Z,96924.09
2018-03-01T14:49:47.441Z,96938.67
2018-03-01T14:52:15.641Z,96935.52
2018-03-01T14:54:43.186Z,96940.17
2018-03-01T14:57:10.684Z,96938.06
2018-03-01T14:59:38.203Z,96927.03
2018-03-01T15:02:05.909Z,96938.17
2018-03-01T15:04:33.425Z,96933.38
2018-03-01T15:07:00.920Z,96930.36
2018-03-01T15:09:28.449Z,96930.41
2018-03-01T15:11:56.331Z,96920.75
2018-03-01T15:14:23.903Z,96911.28
2018-03-01T15:16:51.407Z,96910.10
2018-03-01T15:19:18.933Z,96903.80
2018-03-01T15:21:46.453Z,96908.48
2018-03-01T15:24:14.018Z,96904.83
2018-03-01T15:26:41.552Z,96898.07
2018-03-01T15:29:09.066Z,96898.22
2018-03-01T15:31:36.598Z,96902.03
2018-03-01T15:34:04.152Z,96904.92
2018-03-01T15:36:31.714Z,96899.07
2018-03-01T15:38:59.249Z,96902.73
2018-03-01T15:41:26.748Z,96914.77
2018-03-01T15:43:54.332Z,96905.80
2018-03-01T15:46:21.868Z,96899.52
2018-03-01T15:48:49.354Z,96898.19
2018-03-01T15:51:16.864Z,96900.43
2018-03-01T15:53:44.372Z,96897.47
2018-03-01T15:56:11.881Z,96906.59
2018-03-01T15:58:39.398Z,96904.34
2018-03-01T16:01:06.904Z,96903.26
2018-03-01T16:03:34.425Z,96906.06
2018-03-01T16:06:01.939Z,96909.58
2018-03-01T16:08:29.417Z,96904.19
2018-03-01T16:10:56.932Z,96909.11
2018-03-01T16:13:24.480Z,96902.28
2018-03-01T16:15:52.024Z,96907.61
2018-03-01T16:18:19.546Z,96917.00
2018-03-01T16:20:47.144Z,96914.37
2018-03-01T16:23:14.667Z,96916.09
2018-03-01T16:25:42.173Z,96912.81
2018-03-01T16:28:09.680Z,96911.95
2018-03-01T16:30:37.211Z,96903.02
2018-03-01T16:33:04.740Z,96914.97
2018-03-01T16:35:32.226Z,96905.39
2018-03-01T16:37:59.774Z,96910.53
2018-03-01T16:40:27.264Z,96906.89
2018-03-01T16:42:54.767Z,96913.81
2018-03-01T16:45:22.276Z,96913.86
2018-03-01T16:47:49.783Z,96916.97
2018-03-01T16:50:17.284Z,96909.78
2018-03-01T16:52:44.830Z,96911.22
2018-03-01T16:55:12.437Z,96909.52
2018-03-01T16:57:39.965Z,96899.27
2018-03-01T17:00:07.462Z,96905.00
2018-03-01T17:02:35.010Z,96901.63
2018-03-01T17:05:02.542Z,96900.33
2018-03-01T17:07:30.059Z,96901.09
2018-03-01T17:09:57.603Z,96902.25
2018-03-01T17:12:25.150Z,96901.78
2018-03-01T17:14:52.730Z,96904.45
2018-03-01T17:17:20.271Z,96898.02
2018-03-01T17:19:47.820Z,96902.41
2018-03-01T17:22:15.384Z,96904.92
2018-03-01T17:24:42.930Z,96911.94
2018-03-01T17:27:10.474Z,96917.23
2018-03-01T17:29:37.996Z,96919.13
2018-03-01T17:32:05.508Z,96929.94
2018-03-01T17:34:33.067Z,96930.36
2018-03-01T17:37:00.709Z,96940.22
2018-03-01T17:39:28.286Z,96936.66
2018-03-01T17:41:55.880Z,96936.55
2018-03-01T17:44:23.427Z,96931.97
2018-03-01T17:46:50.991Z,96927.65
2018-03-01T17:49:18.563Z,96926.98
2018-03-01T17:51:46.152Z,96922.22
2018-03-01T17:54:13.711Z,96913.84
2018-03-01T17:56:41.202Z,96911.17
2018-03-01T17:59:08.704Z,96911.98
2018-03-01T18:01:36.276Z,96911.51
2018-03-01T18:04:03.901Z,96907.37
2018-03-01T18:06:31.396Z,96900.32
2018-03-01T18:08:59.908Z,96905.85
2018-03-01T18:11:27.479Z,96902.90
2018-03-01T18:13:57.960Z,96909.18
2018-03-01T18:16:25.496Z,96908.19
2018-03-01T18:18:53.031Z,96910.80
2018-03-01T18:21:20.556Z,96918.17
2018-03-01T18:23:48.064Z,96915.08
2018-03-01T18:26:15.602Z,96917.36
2018-03-01T18:28:43.112Z,96910.45
2018-03-01T18:31:10.678Z,96915.83
2018-03-01T18:33:39.422Z,96905.89
2018-03-01T18:36:07.095Z,96905.45
2018-03-01T18:38:34.678Z,96901.22
2018-03-01T18:41:02.379Z,96903.36
2018-03-01T18:43:29.963Z,96903.70
2018-03-01T18:45:57.632Z,96898.13
2018-03-01T18:48:25.212Z,96899.66
2018-03-01T18:50:52.753Z,96892.38
2018-03-01T18:53:20.317Z,96885.99
2018-03-01T18:55:47.849Z,96886.71
2018-03-01T18:58:15.359Z,96881.66
2018-03-01T19:00:42.908Z,96880.19
2018-03-01T19:03:10.421Z,96877.23
2018-03-01T19:05:38.031Z,96876.53
2018-03-01T19:08:05.620Z,96877.81
2018-03-01T19:10:33.135Z,96875.20
2018-03-01T19:13:00.646Z,96869.63
2018-03-01T19:15:29.312Z,96870.25
2018-03-01T19:17:56.890Z,96878.81
2018-03-01T19:20:24.687Z,96868.24
2018-03-01T19:22:52.344Z,96859.63
2018-03-01T19:25:19.898Z,96854.06
2018-03-01T19:27:47.424Z,96848.45
2018-03-01T19:30:15.031Z,96846.02
2018-03-01T19:32:42.618Z,96849.49
2018-03-01T19:35:11.316Z,96845.13
2018-03-01T19:37:38.864Z,96843.50
2018-03-01T19:40:06.373Z,96837.13
2018-03-01T19:42:34.003Z,96839.73
2018-03-01T19:45:01.496Z,96839.92
2018-03-01T19:47:29.019Z,96843.69
2018-03-01T19:49:57.910Z,96839.13
2018-03-01T19:52:25.459Z,96841.88
2018-03-01T19:54:53.007Z,96845.49
2018-03-01T19:57:20.553Z,96841.31
2018-03-01T19:59:48.102Z,96837.06
2018-03-01T20:02:15.632Z,96834.84
2018-03-01T20:04:43.161Z,96824.57
2018-03-01T20:07:10.721Z,96821.98
2018-03-01T20:09:38.237Z,96817.91
2018-03-01T20:12:05.760Z,96821.80
2018-03-01T20:14:33.306Z,96814.61
2018-03-01T20:17:00.885Z,96822.31
2018-03-01T20:19:28.405Z,96825.78
2018-03-01T20:21:55.940Z,96826.86
2018-03-01T20:24:23.484Z,96816.25
2018-03-01T20:26:51.014Z,96814.41
2018-03-01T20:29:18.549Z,96810.40
2018-03-01T20:31:46.057Z,96810.82
2018-03-01T20:34:13.629Z,96809.63
2018-03-01T20:36:41.173Z,96806.72
2018-03-01T20:39:08.830Z,96803.34
2018-03-01T20:41:36.365Z,96810.73
2018-03-01T20:44:03.885Z,96806.23
2018-03-01T20:46:31.418Z,96803.32
2018-03-01T20:48:58.906Z,96794.77
2018-03-01T20:51:26.429Z,96788.91
2018-03-01T20:53:53.921Z,96781.41
2018-03-01T20:56:21.423Z,96784.44
2018-03-01T20:58:49.114Z,96789.15
2018-03-01T21:01:16.665Z,96787.44
2018-03-01T21:03:44.180Z,96786.31
2018-03-01T21:06:11.749Z,96789.69
2018-03-01T21:08:39.298Z,96788.45
2018-03-01T21:11:06.808Z,96790.66
2018-03-01T21:13:34.341Z,96788.09
2018-03-01T21:16:01.863Z,96799.67
2018-03-01T21:18:29.382Z,96797.61
2018-03-01T21:20:56.961Z,96792.52
2018-03-01T21:23:24.567Z,96786.50
2018-03-01T21:25:52.074Z,96799.86
2018-03-01T21:28:19.711Z,96791.78
2018-03-01T21:30:47.285Z,96795.30
2018-03-01T21:33:14.803Z,96793.27
2018-03-01T21:35:42.364Z,96791.09
2018-03-01T21:38:09.891Z,96786.05
2018-03-01T21:40:37.462Z,96785.69
2018-03-01T21:43:05.011Z,96780.09
2018-03-01T21:45:32.557Z,96778.86
2018-03-01T21:48:00.072Z,96774.19
2018-03-01T21:50:27.569Z,96772.26
2018-03-01T21:52:59.581Z,96766.25
2018-03-01T21:55:27.175Z,96767.04
2018-03-01T21:57:54.708Z,96767.10
2018-03-01T22:00:22.285Z,96767.59
2018-03-01T22:02:49.816Z,96769.37
2018-03-01T22:05:17.328Z,96771.51
2018-03-01T22:07:53.752Z,96772.00
2018-03-01T22:10:21.306Z,96770.30
2018-03-01T22:12:48.850Z,96764.31
2018-03-01T22:15:18.227Z,96756.23
2018-03-01T22:17:45.872Z,96757.48
2018-03-01T22:20:13.852Z,96749.48
2018-03-01T22:22:41.461Z,96745.20
2018-03-01T22:25:09.034Z,96744.81
2018-03-01T22:27:36.564Z,96748.66
2018-03-01T22:30:04.288Z,96743.17
2018-03-01T22:32:32.023Z,96744.88
2018-03-01T22:35:01.590Z,96742.68
2018-03-01T22:37:30.020Z,96740.25
2018-03-01T22:39:57.667Z,96731.72
2018-03-01T22:42:25.173Z,96728.80
2018-03-01T22:44:52.758Z,96725.84
2018-03-01T22:47:20.266Z,96723.31
2018-03-01T22:49:47.794Z,96723.77
2018-03-01T22:52:15.355Z,96723.37
2018-03-01T22:54:42.868Z,96722.89
2018-03-01T22:57:10.429Z,96718.75
2018-03-01T22:59:37.963Z,96710.25
2018-03-01T23:02:05.567Z,96708.57
2018-03-01T23:04:33.102Z,96712.77
2018-03-01T23:07:00.649Z,96712.38
2018-03-01T23:09:28.195Z,96711.49
2018-03-01T23:11:55.708Z,96707.16
2018-03-01T23:14:23.237Z,96704.30
2018-03-01T23:16:50.812Z,96708.60
2018-03-01T23:19:18.376Z,96700.16
2018-03-01T23:21:45.866Z,96703.16
2018-03-01T23:24:13.369Z,96708.30
2018-03-01T23:26:40.883Z,96708.39
2018-03-01T23:29:08.426Z,96705.00
2018-03-01T23:31:35.950Z,96696.05
2018-03-01T23:34:03.477Z,96685.39
2018-03-01T23:36:30.983Z,96686.33
2018-03-01T23:38:58.492Z,96677.37
2018-03-01T23:41:26.056Z,96676.92
2018-03-01T23:43:53.592Z,96667.09
2018-03-01T23:46:21.110Z,96670.59
2018-03-01T23:48:48.623Z,96664.68
2018-03-01T23:51:16.135Z,96661.33
2018-03-01T23:53:43.715Z,96659.14
2018-03-01T23:56:11.234Z,96659.62
2018-03-01T23:58:38.770Z,96657.13
